KAST/AST METAR and TAF weather

Enter ICAO airport designator
Station Type Date Time Source
KAST METAR 2019/08/22 02:55 UTC NOAA

KAST 220255Z AUTO 33013KT 10SM OVC035 16/12 A3004 RMK AO2 SLP173 60000 T01610122 53011


Station Type Date Time Source
KAST Decoded METAR 2019/08/22 02:55 UTC NOAA

Station name not available
Aug 21, 2019 - 10:55 PM EDT / 2019.08.22 0255 UTC
Wind: from the NNW (330 degrees) at 15 MPH (13 KT):0
Visibility: 10 mile(s):0
Sky conditions: overcast
Temperature: 61.0 F (16.1 C)
Dew Point: 54.0 F (12.2 C)
Relative Humidity: 77%
Pressure (altimeter): 30.04 in. Hg (1017 hPa)
Pressure tendency: 0.03 inches (1.1 hPa) higher than three hours ago
ob: KAST 220255Z AUTO 33013KT 10SM OVC035 16/12 A3004 RMK AO2 SLP173 60000 T01610122 53011
cycle: 3

Station Type Date Time Source
KAST TAF 2019/08/21 21:15 UTC NOAA

TAF
AMD KAST 212113Z 2121/2218 20011G21KT 6SM -RA FEW007 OVC020
TEMPO 2121/2123 1SM RA BR SCT007 OVC014
FM212300 26008KT P6SM -RA OVC020
FM220300 30008KT P6SM -SHRA BKN028 OVC040
FM221400 30004KT P6SM OVC007

Example: see airport list